Gasquet, California
Current Conditions -  °F | °C
As of 1:56 PM on Wednesday 22 Oct 2014 (Local Time) from KCEC Reporting Station
Overcast Overcast  
Wind Chill: 63°   Ceiling: 6000
Heat Index: 63°   Visibility: 10mi
Dew Point: 56°   Wind: 17mph
Humidity: 78%   Direction: 160°SSE
Pressure: 29.91"   Gusts: 25mph
Location:  41.85°N, 123.97°W
Report Text: KCEC 222056Z AUTO 16015G22KT 10SM SCT032 OVC060 17/13 A2991 RMK AO2 PK WND 17026/2017 SLP128 60001 T01720133 58013
Loading
Personal Weather Stations






























Interactive Weather Map New forecast layout! Learn more

10-Day Weather Forecast

Advertisements
Track Severe Weather on mobile